Time;durP1;ratioP1;P1;durP2;ratioP2;P2;SDS_P1;SDS_P2;PMS_P1;PMS_P2;Temp;Humidity;BMP_temperature;BMP_pressure;BME280_temperature;BME280_humidity;BME280_pressure;Samples;Min_cycle;Max_cycle;Signal;HPM_P1;HPM_P2
2022/03/04 00:00:38;;;;;;;26.67;16.48;;;;;;;4.23;41.22;96672.34;4957820;28;20478;-82
2022/03/04 00:03:06;;;;;;;26.58;14.52;;;;;;;4.23;41.67;96676.72;4962114;29;20402;-81
2022/03/04 00:05:35;;;;;;;19.77;12.95;;;;;;;4.27;41.95;96678.88;4961715;29;20047;-81
2022/03/04 00:08:03;;;;;;;25.42;13.15;;;;;;;4.32;41.48;96678.44;4961525;29;20051;-82
2022/03/04 00:10:31;;;;;;;24.35;13.25;;;;;;;4.38;41.51;96682.25;4961025;29;20134;-82
2022/03/04 00:13:01;;;;;;;19.83;11.75;;;;;;;4.41;41.34;96685.34;4960822;29;20051;-81
2022/03/04 00:15:30;;;;;;;22.02;13.25;;;;;;;4.39;40.62;96684.66;4959289;29;20103;-81
2022/03/04 00:17:58;;;;;;;17.38;11.98;;;;;;;4.33;41.26;96687.84;4960249;29;20134;-82
2022/03/04 00:20:26;;;;;;;19.45;12.55;;;;;;;4.34;41.38;96692.03;4960114;29;20061;-82
2022/03/04 00:22:54;;;;;;;19.33;12.50;;;;;;;4.40;41.27;96691.47;4961402;29;20058;-82
2022/03/04 00:25:23;;;;;;;19.27;12.20;;;;;;;4.43;41.04;96700.72;4961583;29;20090;-82
2022/03/04 00:27:51;;;;;;;18.52;12.52;;;;;;;4.45;41.13;96699.63;4962513;29;20065;-81
2022/03/04 00:30:20;;;;;;;18.20;12.40;;;;;;;4.48;41.28;96699.34;4962314;29;20114;-80
2022/03/04 00:32:48;;;;;;;22.27;13.32;;;;;;;4.41;40.71;96702.63;4962100;29;20071;-81
2022/03/04 00:35:16;;;;;;;19.98;12.38;;;;;;;4.34;40.97;96702.38;4962084;29;20707;-81
2022/03/04 00:37:45;;;;;;;19.25;12.38;;;;;;;4.37;41.62;96707.25;4961462;29;20578;-81
2022/03/04 00:40:14;;;;;;;18.20;12.13;;;;;;;4.33;41.04;96709.31;4960742;29;20529;-82
2022/03/04 00:42:43;;;;;;;17.27;11.80;;;;;;;4.36;41.00;96707.41;4961246;29;20138;-82
2022/03/04 00:45:11;;;;;;;19.02;12.18;;;;;;;4.37;41.20;96712.41;4960622;29;20470;-82
2022/03/04 00:47:40;;;;;;;18.13;12.27;;;;;;;4.34;41.48;96705.75;4960733;29;20150;-81
2022/03/04 00:50:09;;;;;;;19.38;12.32;;;;;;;4.30;41.76;96719.09;4973172;29;20522;-82
2022/03/04 00:52:38;;;;;;;18.85;12.63;;;;;;;4.24;42.68;96712.75;4974998;29;20058;-83
2022/03/04 00:55:06;;;;;;;18.17;12.60;;;;;;;4.20;42.08;96719.13;4966040;29;20055;-82
2022/03/04 00:57:34;;;;;;;19.52;12.23;;;;;;;4.11;42.05;96713.03;4960757;29;20063;-82
2022/03/04 01:00:02;;;;;;;18.52;12.95;;;;;;;4.12;42.42;96714.63;4959991;29;20143;-82
2022/03/04 01:02:30;;;;;;;19.55;12.85;;;;;;;4.11;42.01;96713.03;4959855;29;20073;-83
2022/03/04 01:04:59;;;;;;;18.25;12.57;;;;;;;4.09;42.37;96714.94;4964584;29;20379;-83
2022/03/04 01:07:27;;;;;;;19.42;12.40;;;;;;;4.12;41.91;96711.25;4974402;29;20063;-81
2022/03/04 01:09:55;;;;;;;21.92;13.60;;;;;;;4.07;41.93;96706.50;4960720;29;20523;-81
2022/03/04 01:12:23;;;;;;;21.27;13.18;;;;;;;4.04;42.12;96706.75;4958970;28;20481;-81
2022/03/04 01:14:51;;;;;;;21.23;13.23;;;;;;;4.04;42.31;96708.53;4964709;29;20100;-82
2022/03/04 01:17:19;;;;;;;18.25;12.85;;;;;;;4.04;41.82;96706.75;4972126;29;20047;-81
2022/03/04 01:19:47;;;;;;;21.88;12.73;;;;;;;4.03;42.47;96702.56;4962587;29;20055;-81
2022/03/04 01:22:16;;;;;;;22.58;13.60;;;;;;;4.06;42.77;96699.69;4961524;29;20091;-81
2022/03/04 01:24:44;;;;;;;20.75;13.55;;;;;;;4.06;42.29;96702.28;4971107;23;20055;-78
2022/03/04 01:27:11;;;;;;;19.42;11.93;;;;;;;4.07;42.14;96691.03;4965519;28;20035;-75
2022/03/04 01:29:39;;;;;;;21.60;13.38;;;;;;;4.06;42.14;96694.53;4979570;28;20053;-79
2022/03/04 01:32:07;;;;;;;18.35;12.65;;;;;;;4.07;42.10;96687.63;4976389;28;20061;-79
2022/03/04 01:34:35;;;;;;;18.25;12.20;;;;;;;4.06;42.24;96686.78;4957188;28;20047;-79
2022/03/04 01:37:02;;;;;;;20.85;13.13;;;;;;;4.00;41.69;96687.38;4956060;29;20417;-79
2022/03/04 01:39:31;;;;;;;18.65;12.32;;;;;;;3.94;42.27;96692.28;4956880;29;20258;-79
2022/03/04 01:41:59;;;;;;;20.05;13.07;;;;;;;3.88;42.04;96688.47;4956269;29;20058;-78
2022/03/04 01:44:27;;;;;;;21.08;12.75;;;;;;;3.77;42.01;96684.25;4957822;28;20429;-79
2022/03/04 01:46:54;;;;;;;19.35;12.48;;;;;;;3.71;42.50;96683.03;4957987;29;20043;-78
2022/03/04 01:49:22;;;;;;;19.73;12.70;;;;;;;3.65;42.78;96686.19;4959285;29;20164;-78
2022/03/04 01:51:49;;;;;;;18.90;12.43;;;;;;;3.57;42.84;96673.13;4959372;29;20055;-79
2022/03/04 01:54:17;;;;;;;19.73;12.85;;;;;;;3.48;42.95;96682.50;4958993;28;20066;-80
2022/03/04 01:56:46;;;;;;;19.00;12.98;;;;;;;3.44;43.06;96678.56;4958639;29;20051;-79
2022/03/04 01:59:13;;;;;;;18.75;12.05;;;;;;;3.39;43.31;96674.75;4958022;29;20497;-79
2022/03/04 02:01:41;;;;;;;19.88;12.80;;;;;;;3.35;43.59;96678.56;4958775;29;20051;-79
2022/03/04 02:04:09;;;;;;;19.23;13.25;;;;;;;3.37;43.73;96671.50;4958639;28;20066;-78
2022/03/04 02:06:36;;;;;;;18.33;12.75;;;;;;;3.40;43.78;96671.25;4957303;29;20051;-79
2022/03/04 02:09:04;;;;;;;20.13;13.25;;;;;;;3.48;43.47;96673.97;4958397;29;20070;-79
2022/03/04 02:11:32;;;;;;;19.50;12.07;;;;;;;3.55;43.17;96669.88;4958243;29;20051;-80
2022/03/04 02:14:01;;;;;;;17.13;12.18;;;;;;;3.58;43.50;96674.75;4957936;28;20051;-78
2022/03/04 02:16:35;;;;;;;18.55;12.13;;;;;;;3.54;43.68;96673.41;4957322;29;20062;-79
2022/03/04 02:19:03;;;;;;;17.70;12.45;;;;;;;3.45;43.13;96674.22;4957440;29;20134;-79
2022/03/04 02:21:32;;;;;;;18.27;12.35;;;;;;;3.41;43.78;96668.53;4957369;29;20445;-80
2022/03/04 02:24:01;;;;;;;18.88;12.38;;;;;;;3.38;43.61;96662.81;4956686;28;20428;-78
2022/03/04 02:26:29;;;;;;;19.75;13.25;;;;;;;3.34;44.11;96666.63;4956905;29;20058;-80
2022/03/04 02:28:56;;;;;;;17.02;11.43;;;;;;;3.26;43.58;96662.16;4957546;29;20055;-79
2022/03/04 02:31:24;;;;;;;17.50;12.60;;;;;;;3.18;43.89;96664.56;4957804;29;20062;-78
2022/03/04 02:33:51;;;;;;;18.60;11.88;;;;;;;3.14;44.48;96661.44;4957799;28;20062;-77
2022/03/04 02:36:19;;;;;;;18.13;11.85;;;;;;;3.20;43.98;96653.16;4957329;29;20051;-81
2022/03/04 02:38:47;;;;;;;19.20;12.63;;;;;;;3.18;43.83;96649.09;4957747;29;20058;-80
2022/03/04 02:41:16;;;;;;;20.27;13.18;;;;;;;3.06;43.84;96649.22;4957565;29;20047;-80
2022/03/04 02:43:44;;;;;;;20.13;12.32;;;;;;;2.99;44.05;96644.72;4956718;28;20078;-82
2022/03/04 02:46:13;;;;;;;23.48;13.23;;;;;;;2.90;44.20;96651.50;4956805;29;20051;-80
2022/03/04 02:48:40;;;;;;;18.20;12.13;;;;;;;2.82;44.26;96643.59;4957889;29;20079;-78
2022/03/04 02:51:08;;;;;;;18.08;12.45;;;;;;;2.77;45.25;96643.19;4957574;29;20433;-78
2022/03/04 02:53:36;;;;;;;17.05;11.65;;;;;;;2.81;45.11;96640.22;4956998;28;20058;-79
2022/03/04 02:56:04;;;;;;;18.70;12.60;;;;;;;2.84;44.79;96650.28;4956584;29;20051;-78
2022/03/04 02:58:32;;;;;;;20.58;13.10;;;;;;;2.83;44.92;96643.47;4957009;29;20060;-79
2022/03/04 03:01:01;;;;;;;22.08;13.10;;;;;;;2.84;44.55;96647.69;4956554;29;20047;-77
2022/03/04 03:03:29;;;;;;;19.70;13.07;;;;;;;2.84;44.64;96642.56;4956796;28;20051;-77
2022/03/04 03:05:56;;;;;;;24.15;14.13;;;;;;;2.78;44.38;96645.66;4955990;29;20058;-80
2022/03/04 03:08:24;;;;;;;29.10;15.10;;;;;;;2.69;44.50;96643.88;4957155;29;20047;-78
2022/03/04 03:10:55;;;;;;;24.42;14.85;;;;;;;2.71;45.54;96648.88;4957135;29;20110;-77
2022/03/04 03:13:23;;;;;;;52.45;25.30;;;;;;;2.72;44.97;96648.75;4958139;28;20082;-82
2022/03/04 03:15:52;;;;;;;43.80;23.27;;;;;;;2.66;45.11;96655.22;4954716;29;20074;-84
2022/03/04 03:18:19;;;;;;;59.88;29.35;;;;;;;2.62;44.80;96653.03;4956120;29;20057;-83
2022/03/04 03:20:48;;;;;;;64.22;29.58;;;;;;;2.58;45.10;96654.25;4955130;29;20047;-82
2022/03/04 03:23:15;;;;;;;54.95;27.42;;;;;;;2.46;44.99;96656.91;4955165;28;20081;-80
2022/03/04 03:25:42;;;;;;;44.20;23.30;;;;;;;2.32;45.13;96654.72;4955409;29;20043;-79
2022/03/04 03:28:10;;;;;;;37.53;21.50;;;;;;;2.22;45.65;96662.38;4955400;29;20051;-83
2022/03/04 03:30:37;;;;;;;36.20;19.65;;;;;;;2.28;46.19;96665.41;4955284;29;20053;-82
2022/03/04 03:33:06;;;;;;;38.13;21.10;;;;;;;2.34;46.04;96667.44;4955346;28;20051;-82
2022/03/04 03:35:34;;;;;;;40.97;22.17;;;;;;;2.35;45.90;96669.88;4954630;29;20051;-82
2022/03/04 03:38:01;;;;;;;38.70;21.90;;;;;;;2.40;45.61;96670.31;4954322;29;20457;-82
2022/03/04 03:40:29;;;;;;;38.85;22.88;;;;;;;2.39;45.88;96671.25;4955303;29;20502;-83
2022/03/04 03:42:56;;;;;;;39.97;22.08;;;;;;;2.38;45.71;96672.19;4955389;28;20062;-81
2022/03/04 03:45:24;;;;;;;39.03;22.58;;;;;;;2.40;45.68;96683.19;4955323;29;20054;-79
2022/03/04 03:47:52;;;;;;;29.73;18.77;;;;;;;2.41;45.38;96687.41;4955451;29;20047;-81
2022/03/04 03:50:21;;;;;;;30.85;17.48;;;;;;;2.38;46.02;96677.34;4955348;29;20047;-80
2022/03/04 03:52:49;;;;;;;30.08;17.67;;;;;;;2.43;45.61;96682.94;4955483;28;20059;-81
2022/03/04 03:55:16;;;;;;;30.75;18.70;;;;;;;2.45;45.56;96681.06;4955325;29;20055;-78
2022/03/04 03:57:44;;;;;;;37.33;20.85;;;;;;;2.42;45.28;96686.44;4954499;29;20055;-85
2022/03/04 04:00:12;;;;;;;36.80;22.45;;;;;;;2.28;45.57;96684.22;4955579;29;20066;-82
2022/03/04 04:02:39;;;;;;;40.17;24.05;;;;;;;2.19;45.50;96690.13;4955102;28;20063;-80
2022/03/04 04:05:08;;;;;;;36.53;22.25;;;;;;;2.06;45.77;96690.34;4955027;29;20059;-84
2022/03/04 04:07:37;;;;;;;32.05;20.85;;;;;;;2.04;46.26;96693.03;4954109;29;20062;-83
2022/03/04 04:10:05;;;;;;;27.42;17.48;;;;;;;2.08;46.31;96696.16;4955084;29;20047;-80
2022/03/04 04:12:33;;;;;;;31.63;18.45;;;;;;;2.11;46.21;96697.66;4955410;29;20530;-78
2022/03/04 04:15:00;;;;;;;26.27;16.27;;;;;;;2.14;46.34;96690.50;4954825;28;20060;-80
2022/03/04 04:17:28;;;;;;;24.63;15.50;;;;;;;2.20;46.13;96696.91;4954472;29;20059;-83
2022/03/04 04:19:55;;;;;;;26.25;16.10;;;;;;;2.14;45.70;96703.34;4954361;29;20047;-80
2022/03/04 04:22:23;;;;;;;21.48;13.80;;;;;;;2.09;46.01;96704.69;4955243;29;20136;-78
2022/03/04 04:24:52;;;;;;;22.40;14.45;;;;;;;1.99;46.20;96710.59;4954533;28;20047;-80
2022/03/04 04:27:19;;;;;;;22.20;14.18;;;;;;;1.87;46.06;96703.88;4954337;29;20257;-80
2022/03/04 04:29:47;;;;;;;25.55;15.43;;;;;;;1.82;46.34;96716.31;4955041;29;20062;-85
2022/03/04 04:32:14;;;;;;;21.85;14.52;;;;;;;1.79;46.86;96713.97;4954534;29;20051;-83
2022/03/04 04:34:41;;;;;;;24.45;15.05;;;;;;;1.78;46.57;96713.16;4954445;28;20058;-80
2022/03/04 04:37:09;;;;;;;25.05;15.45;;;;;;;1.77;47.39;96708.13;4954216;29;20441;-82
2022/03/04 04:39:36;;;;;;;19.58;13.32;;;;;;;1.82;47.09;96706.03;4954689;29;20051;-80
2022/03/04 04:42:06;;;;;;;24.23;14.90;;;;;;;1.86;47.08;96709.97;4954579;29;20059;-82
2022/03/04 04:44:33;;;;;;;26.10;15.18;;;;;;;1.80;46.23;96710.47;4954465;28;20070;-80
2022/03/04 04:47:01;;;;;;;22.25;14.55;;;;;;;1.64;46.74;96714.28;4953751;28;20043;-80
2022/03/04 04:49:29;;;;;;;21.08;13.68;;;;;;;1.59;46.86;96713.81;4958312;29;20051;-80
2022/03/04 04:51:56;;;;;;;22.63;14.23;;;;;;;1.49;46.77;96718.06;4969215;28;20031;-75
2022/03/04 04:54:24;;;;;;;23.55;14.65;;;;;;;1.40;47.29;96723.94;4981590;28;20039;-77
2022/03/04 04:56:51;;;;;;;24.48;14.10;;;;;;;1.41;47.79;96710.97;4976348;28;20058;-84
2022/03/04 04:59:20;;;;;;;23.30;15.25;;;;;;;1.51;47.70;96715.38;4958175;29;20055;-81
2022/03/04 05:01:48;;;;;;;22.17;14.05;;;;;;;1.47;47.20;96719.16;4958634;29;20051;-84
2022/03/04 05:04:15;;;;;;;24.90;14.73;;;;;;;1.38;47.28;96720.69;4958721;28;20051;-86
2022/03/04 05:06:43;;;;;;;24.08;15.00;;;;;;;1.28;47.62;96724.91;4959131;29;20054;-83
2022/03/04 05:09:10;;;;;;;22.92;14.45;;;;;;;1.27;47.76;96723.25;4959599;29;20059;-79
2022/03/04 05:11:42;;;;;;;25.25;15.93;;;;;;;1.21;47.65;96733.09;4976591;28;20035;-88
2022/03/04 05:14:18;;;;;;;27.85;16.23;;;;;;;1.12;48.14;96726.13;4981812;28;20114;-90
2022/03/04 05:16:48;;;;;;;25.98;15.27;;;;;;;1.09;47.78;96734.03;4981087;28;20404;-90
2022/03/04 05:19:20;;;;;;;24.55;14.93;;;;;;;1.01;48.28;96736.41;4983128;28;20070;-90
2022/03/04 05:24:55;;;;;;;23.08;14.80;;;;;;;0.92;48.41;96731.97;4959971;28;20115;-90
2022/03/04 05:27:32;;;;;;;22.85;14.18;;;;;;;0.91;47.99;96738.03;4980421;28;20239;-89
2022/03/04 05:30:05;;;;;;;24.65;16.17;;;;;;;0.86;48.18;96735.03;4981325;28;20050;-90
2022/03/04 05:32:42;;;;;;;24.25;15.50;;;;;;;0.80;48.76;96731.16;4981458;28;20035;-89
2022/03/04 05:57:06;;;;;;;23.08;14.80;;;;;;;0.48;49.64;96741.31;4995973;28;20031;-92
2022/03/04 05:59:55;;;;;;;26.35;15.27;;;;;;;0.53;49.98;96742.59;4997581;28;20035;-90
2022/03/04 06:02:36;;;;;;;24.92;14.95;;;;;;;0.68;50.30;96747.50;4998668;28;20058;-88
2022/03/04 06:05:16;;;;;;;29.25;15.63;;;;;;;0.77;49.48;96751.97;4980464;28;20035;-91
2022/03/04 06:07:50;;;;;;;29.35;17.90;;;;;;;0.77;49.33;96763.03;4979766;28;20111;-91
2022/03/04 06:10:20;;;;;;;28.02;15.88;;;;;;;0.76;48.84;96766.53;4979484;28;20039;-89
2022/03/04 06:12:56;;;;;;;25.58;15.82;;;;;;;0.70;48.99;96768.75;4979438;28;20067;-88
2022/03/04 06:15:32;;;;;;;25.25;14.85;;;;;;;0.59;48.95;96766.97;4979170;29;20047;-87
2022/03/04 06:18:03;;;;;;;29.33;17.23;;;;;;;0.49;49.15;96763.50;4978622;28;20083;-90
2022/03/04 06:20:42;;;;;;;22.35;15.02;;;;;;;0.51;50.33;96771.91;4978991;29;20055;-89
2022/03/04 06:23:18;;;;;;;27.17;15.70;;;;;;;0.63;49.93;96770.94;4978111;28;20054;-89
2022/03/04 06:25:59;;;;;;;27.90;15.55;;;;;;;0.71;49.80;96768.63;4978499;28;20051;-92
2022/03/04 06:28:48;;;;;;;67.10;18.23;;;;;;;0.82;49.23;96778.09;4978610;28;20035;-91
2022/03/04 06:31:19;;;;;;;43.58;17.08;;;;;;;0.81;49.04;96777.28;4979231;28;20087;-89
2022/03/04 06:34:00;;;;;;;40.05;16.63;;;;;;;0.82;48.68;96773.75;4978989;28;20051;-90
2022/03/04 06:39:23;;;;;;;51.47;17.67;;;;;;;1.20;49.16;96772.59;4977103;29;20055;-89
2022/03/04 06:42:05;;;;;;;41.75;16.92;;;;;;;1.48;48.93;96772.97;4978266;29;20063;-88
2022/03/04 06:44:44;;;;;;;37.35;18.20;;;;;;;1.70;48.23;96774.66;4978155;28;20442;-90
2022/03/04 06:47:16;;;;;;;42.95;17.33;;;;;;;1.86;47.70;96782.00;4977051;28;20276;-85
2022/03/04 06:49:57;;;;;;;45.38;17.40;;;;;;;1.97;47.74;96783.72;4978246;29;20082;-87
2022/03/04 06:55:16;;;;;;;31.52;17.35;;;;;;;2.28;48.23;96799.25;4997446;23;20054;-83
2022/03/04 06:57:50;;;;;;;29.60;16.95;;;;;;;2.46;48.42;96800.28;4974487;29;20055;-86
2022/03/04 07:00:32;;;;;;;35.50;18.45;;;;;;;2.66;47.39;96796.06;4974858;28;20055;-85
2022/03/04 07:03:15;;;;;;;27.45;16.83;;;;;;;2.78;46.91;96804.56;4974758;28;20085;-89
2022/03/04 07:05:58;;;;;;;21.83;14.73;;;;;;;2.87;48.22;96794.28;4977052;29;20054;-92
2022/03/04 07:08:30;;;;;;;28.15;16.48;;;;;;;3.03;48.86;96796.38;4978242;29;20048;-93
2022/03/04 07:11:02;;;;;;;29.65;17.75;;;;;;;3.22;48.33;96795.63;4976948;28;20039;-90
2022/03/04 07:13:44;;;;;;;30.50;17.27;;;;;;;3.43;49.53;96799.91;4977085;28;20083;-89
2022/03/04 07:16:19;;;;;;;26.67;16.58;;;;;;;3.56;49.95;96795.31;4973704;29;20441;-90
2022/03/04 07:18:48;;;;;;;29.42;18.20;;;;;;;3.76;48.78;96803.06;4972321;29;20082;-90
2022/03/04 07:21:20;;;;;;;28.70;19.08;;;;;;;3.99;48.47;96796.72;4971936;29;20059;-89
2022/03/04 07:23:48;;;;;;;31.10;18.67;;;;;;;4.21;47.37;96798.19;4985317;23;20114;-78
2022/03/04 07:26:18;;;;;;;29.42;18.35;;;;;;;4.33;47.47;96804.06;4955313;29;20058;-78
2022/03/04 07:28:45;;;;;;;30.35;18.42;;;;;;;4.52;46.10;96803.19;4956089;29;20469;-78
2022/03/04 07:31:14;;;;;;;28.60;18.15;;;;;;;4.61;44.46;96809.28;4955485;29;20425;-78
2022/03/04 07:33:42;;;;;;;29.52;18.15;;;;;;;4.67;44.76;96806.97;4955682;28;20051;-78
2022/03/04 07:36:09;;;;;;;28.40;18.10;;;;;;;4.80;44.35;96809.25;4954682;29;20058;-79
2022/03/04 07:38:37;;;;;;;28.92;18.15;;;;;;;4.93;44.22;96804.59;4955105;29;20062;-78
2022/03/04 07:41:04;;;;;;;30.33;18.55;;;;;;;5.10;44.09;96817.75;4955126;29;20067;-78
2022/03/04 07:43:32;;;;;;;31.05;19.17;;;;;;;5.24;45.33;96822.44;4955173;28;20052;-78
2022/03/04 07:45:59;;;;;;;35.45;20.58;;;;;;;5.41;45.16;96822.66;4954331;29;20058;-78
2022/03/04 07:48:28;;;;;;;32.42;19.13;;;;;;;5.62;43.82;96832.72;4955738;28;20054;-79
2022/03/04 07:50:57;;;;;;;37.05;19.65;;;;;;;5.75;43.04;96834.03;4954953;29;20055;-78
2022/03/04 07:53:24;;;;;;;32.90;18.13;;;;;;;5.88;42.81;96830.25;4954947;28;20059;-78
2022/03/04 07:55:52;;;;;;;33.78;19.67;;;;;;;6.04;42.88;96822.69;4954317;29;20062;-78
2022/03/04 07:58:19;;;;;;;32.85;19.25;;;;;;;6.23;41.90;96823.50;4955038;29;20440;-79
2022/03/04 08:00:47;;;;;;;28.30;19.40;;;;;;;6.38;41.36;96829.78;4955237;29;20047;-79
2022/03/04 08:03:36;;;;;;;31.05;19.52;;;;;;;6.53;40.59;96827.47;4954898;28;20118;-78
2022/03/04 08:06:03;;;;;;;31.60;19.77;;;;;;;6.71;40.48;96835.19;4953826;29;20070;-78
2022/03/04 08:08:31;;;;;;;28.92;19.90;;;;;;;6.84;40.45;96837.41;4954676;29;20281;-79
2022/03/04 08:10:59;;;;;;;27.92;19.15;;;;;;;7.00;41.77;96838.31;4954799;29;20471;-78
2022/03/04 08:13:26;;;;;;;30.52;21.25;;;;;;;7.23;40.58;96837.78;4954332;28;20062;-78
2022/03/04 08:15:54;;;;;;;29.25;19.63;;;;;;;7.43;39.40;96839.19;4954029;29;20429;-79
2022/03/04 08:18:21;;;;;;;30.42;19.83;;;;;;;7.61;39.41;96846.09;4954341;29;20058;-78
2022/03/04 08:20:50;;;;;;;29.90;19.17;;;;;;;7.80;38.55;96852.78;4954258;28;20063;-78
2022/03/04 08:23:18;;;;;;;29.52;19.38;;;;;;;7.96;39.11;96846.81;4957845;28;20399;-78
2022/03/04 08:25:46;;;;;;;32.40;19.95;;;;;;;8.12;38.51;96844.25;4957290;29;20510;-78
2022/03/04 08:28:13;;;;;;;30.98;20.40;;;;;;;8.28;38.11;96853.03;4958158;29;20074;-78
2022/03/04 08:30:41;;;;;;;28.85;20.13;;;;;;;8.44;37.65;96853.91;4957961;29;20058;-79
2022/03/04 08:33:09;;;;;;;27.88;19.45;;;;;;;8.56;37.46;96849.19;4957831;28;20077;-78
2022/03/04 08:35:36;;;;;;;27.10;17.38;;;;;;;8.68;37.25;96848.84;4957995;29;20054;-79
2022/03/04 08:38:05;;;;;;;30.00;18.85;;;;;;;8.80;36.50;96845.75;4957640;29;20059;-79
2022/03/04 08:40:33;;;;;;;23.75;17.75;;;;;;;8.97;36.43;96845.75;4957806;29;20058;-79
2022/03/04 08:43:00;;;;;;;26.88;19.50;;;;;;;9.14;36.58;96839.53;4957577;28;20425;-79
2022/03/04 08:45:28;;;;;;;28.10;18.65;;;;;;;9.34;37.01;96839.97;4957460;29;20059;-79
2022/03/04 08:47:56;;;;;;;25.50;17.83;;;;;;;9.53;37.20;96841.34;4956724;29;20115;-78
2022/03/04 08:50:23;;;;;;;29.30;18.73;;;;;;;9.75;36.03;96839.81;4957424;29;20055;-78
2022/03/04 08:52:51;;;;;;;31.02;18.13;;;;;;;9.92;34.87;96840.50;4957271;29;20058;-79
2022/03/04 08:55:20;;;;;;;26.05;17.88;;;;;;;10.07;34.41;96843.19;4957374;28;20092;-79
2022/03/04 08:57:48;;;;;;;26.65;18.05;;;;;;;10.29;34.31;96841.63;4956343;29;20047;-79
2022/03/04 09:00:17;;;;;;;26.02;16.73;;;;;;;10.49;34.81;96831.53;4957056;29;20059;-79
2022/03/04 09:02:45;;;;;;;24.65;17.30;;;;;;;10.75;33.72;96835.56;4957107;29;20058;-79
2022/03/04 09:05:13;;;;;;;27.77;17.83;;;;;;;10.94;32.24;96829.81;4956855;28;20047;-79
2022/03/04 09:07:41;;;;;;;26.83;18.00;;;;;;;11.13;31.93;96831.13;4956627;29;20062;-79
2022/03/04 09:10:10;;;;;;;24.02;18.00;;;;;;;11.28;31.30;96831.94;4957116;29;20058;-78
2022/03/04 09:12:39;;;;;;;25.55;18.17;;;;;;;11.43;32.28;96829.28;4956699;29;20051;-78
2022/03/04 09:15:08;;;;;;;26.13;17.52;;;;;;;11.69;31.49;96828.00;4956758;28;20052;-79
2022/03/04 09:17:36;;;;;;;24.42;16.70;;;;;;;11.87;31.85;96836.28;4955859;29;20058;-79
2022/03/04 09:20:04;;;;;;;26.13;17.42;;;;;;;12.05;31.75;96837.72;4956595;29;20047;-80
2022/03/04 09:22:31;;;;;;;24.40;17.77;;;;;;;12.19;30.26;96834.22;4957099;29;20051;-79
2022/03/04 09:24:59;;;;;;;22.80;17.10;;;;;;;12.34;29.62;96829.75;4956728;28;20533;-79
2022/03/04 09:27:26;;;;;;;21.85;15.15;;;;;;;12.45;27.41;96830.25;4955851;29;20056;-79
2022/03/04 09:29:55;;;;;;;21.30;14.88;;;;;;;12.51;27.00;96832.91;4956585;29;20062;-79
2022/03/04 09:32:23;;;;;;;20.85;14.98;;;;;;;12.62;26.55;96828.19;4956423;28;20055;-79
2022/03/04 09:34:51;;;;;;;21.17;15.65;;;;;;;12.56;26.18;96834.97;4955978;28;20051;-79
2022/03/04 09:37:18;;;;;;;20.80;14.80;;;;;;;12.50;26.13;96833.91;4955761;29;20055;-79
2022/03/04 09:39:46;;;;;;;21.27;15.13;;;;;;;12.54;25.94;96831.72;4956708;29;20058;-79
2022/03/04 09:42:14;;;;;;;24.40;15.52;;;;;;;12.64;25.59;96829.59;4956236;29;20051;-79
2022/03/04 09:44:41;;;;;;;25.00;16.52;;;;;;;12.74;25.17;96830.06;4956173;28;20062;-79
2022/03/04 09:47:11;;;;;;;23.38;14.93;;;;;;;12.77;24.92;96828.91;4955356;29;20186;-79
2022/03/04 09:49:39;;;;;;;20.63;14.40;;;;;;;12.83;25.17;96824.69;4956337;29;20462;-80
2022/03/04 09:52:08;;;;;;;20.60;14.63;;;;;;;12.97;25.58;96821.19;4956096;29;20089;-80
2022/03/04 09:54:36;;;;;;;22.08;14.88;;;;;;;13.04;24.34;96823.84;4956133;28;20134;-79
2022/03/04 09:57:04;;;;;;;20.63;15.60;;;;;;;12.94;24.49;96821.56;4955245;29;20055;-79
2022/03/04 09:59:32;;;;;;;21.17;14.38;;;;;;;13.01;24.70;96818.97;4955751;29;20047;-79
2022/03/04 10:02:00;;;;;;;21.58;16.10;;;;;;;13.20;24.51;96818.31;4955905;29;20055;-79
2022/03/04 10:04:29;;;;;;;22.38;15.77;;;;;;;13.45;23.68;96808.19;4955716;28;20055;-79
2022/03/04 10:06:57;;;;;;;23.92;15.85;;;;;;;13.60;23.60;96816.72;4954941;29;20055;-79
2022/03/04 10:09:37;;;;;;;22.02;16.00;;;;;;;13.55;22.91;96815.69;4955632;29;20058;-79
2022/03/04 10:12:07;;;;;;;19.58;14.45;;;;;;;13.35;23.36;96811.16;4955535;29;20521;-79
2022/03/04 10:14:35;;;;;;;19.95;14.13;;;;;;;13.46;24.09;96815.03;4955699;28;20429;-79
2022/03/04 10:17:05;;;;;;;17.08;14.25;;;;;;;13.62;23.48;96813.91;4955006;29;20074;-79
2022/03/04 10:19:37;;;;;;;22.02;15.80;;;;;;;13.73;22.91;96815.16;4955401;29;20494;-79
2022/03/04 10:22:06;;;;;;;22.15;15.65;;;;;;;13.90;23.26;96816.41;4955306;29;20054;-79
2022/03/04 10:24:35;;;;;;;21.17;14.82;;;;;;;14.10;22.78;96815.66;4955147;28;20062;-79
2022/03/04 10:27:05;;;;;;;18.95;13.90;;;;;;;14.21;22.43;96815.09;4955047;29;20055;-79
2022/03/04 10:29:37;;;;;;;22.65;15.07;;;;;;;14.45;22.52;96820.78;4955243;29;20093;-79
2022/03/04 10:32:15;;;;;;;19.13;13.93;;;;;;;14.60;21.98;96811.72;4955678;29;20143;-79
2022/03/04 10:34:55;;;;;;;21.27;14.90;;;;;;;14.65;21.42;96819.00;4955075;28;20055;-79
2022/03/04 10:37:26;;;;;;;21.15;14.85;;;;;;;14.72;22.48;96808.50;4954659;29;20062;-79
2022/03/04 10:40:08;;;;;;;22.08;15.45;;;;;;;14.79;20.94;96814.56;4955221;29;20051;-79
2022/03/04 10:42:44;;;;;;;20.92;14.02;;;;;;;14.93;21.40;96816.16;4955152;29;20055;-79
2022/03/04 10:45:14;;;;;;;23.25;16.92;;;;;;;15.11;21.42;96812.91;4955008;28;20051;-79
2022/03/04 10:47:46;;;;;;;22.23;15.57;;;;;;;15.29;21.56;96814.09;4954334;29;20429;-77
2022/03/04 10:50:16;;;;;;;19.63;15.13;;;;;;;15.56;20.93;96815.59;4964623;29;20055;-78
2022/03/04 10:52:55;;;;;;;22.45;15.55;;;;;;;15.70;20.41;96811.13;4973337;29;20051;-78
2022/03/04 10:55:31;;;;;;;19.10;13.90;;;;;;;15.82;21.13;96809.47;4973036;28;20051;-77
2022/03/04 10:57:59;;;;;;;21.52;15.85;;;;;;;15.96;20.75;96810.22;4955854;29;20051;-77
2022/03/04 11:00:29;;;;;;;18.63;14.82;;;;;;;15.91;20.20;96806.59;4954762;29;20059;-77
2022/03/04 11:02:56;;;;;;;19.98;14.30;;;;;;;16.00;20.52;96806.13;4954995;29;20055;-77
2022/03/04 11:05:25;;;;;;;21.77;15.52;;;;;;;16.05;19.96;96813.41;4954551;28;20433;-77
2022/03/04 11:07:53;;;;;;;19.50;14.95;;;;;;;16.10;20.91;96795.16;4953910;29;20055;-77
2022/03/04 11:10:22;;;;;;;18.95;14.10;;;;;;;16.44;20.27;96801.81;4954310;29;20066;-77
2022/03/04 11:12:54;;;;;;;21.58;14.35;;;;;;;16.81;20.03;96796.66;4955100;29;20096;-77
2022/03/04 11:15:23;;;;;;;17.70;14.18;;;;;;;17.26;19.41;96793.00;4955305;28;20138;-78
2022/03/04 11:17:53;;;;;;;20.27;13.45;;;;;;;17.56;18.55;96792.25;4954381;29;20428;-77
2022/03/04 11:20:20;;;;;;;20.02;13.70;;;;;;;17.75;18.11;96791.22;4954877;29;20051;-77
2022/03/04 11:22:51;;;;;;;20.23;14.27;;;;;;;18.03;17.82;96797.78;4954496;29;20055;-78
2022/03/04 11:25:19;;;;;;;22.13;14.05;;;;;;;18.35;17.67;96790.44;4954131;28;20061;-76
2022/03/04 11:27:49;;;;;;;19.88;13.27;;;;;;;18.85;17.39;96789.28;4953668;29;20055;-77
2022/03/04 11:30:31;;;;;;;17.30;13.52;;;;;;;19.20;16.10;96785.78;4954413;29;20498;-77
2022/03/04 11:33:06;;;;;;;20.15;13.77;;;;;;;19.69;15.57;96792.38;4955557;29;20051;-77
2022/03/04 11:36:09;;;;;;;16.52;12.98;;;;;;;20.22;15.90;96792.28;4955753;29;20406;-78
2022/03/04 11:39:10;;;;;;;16.02;13.05;;;;;;;20.84;14.92;96789.63;4955420;29;20047;-77
2022/03/04 11:42:09;;;;;;;15.48;12.38;;;;;;;21.01;14.64;96784.28;4954986;29;20055;-78
2022/03/04 11:44:54;;;;;;;17.63;12.95;;;;;;;21.44;15.06;96787.28;4948992;28;20055;-77
2022/03/04 11:47:22;;;;;;;18.35;13.98;;;;;;;21.97;14.51;96788.41;4954225;29;20051;-78
2022/03/04 11:49:50;;;;;;;17.83;13.25;;;;;;;22.38;14.74;96780.88;4954734;29;20051;-77
2022/03/04 11:52:21;;;;;;;17.73;13.65;;;;;;;23.07;14.40;96787.25;4954092;29;20063;-77
2022/03/04 11:55:12;;;;;;;17.80;13.00;;;;;;;23.66;13.94;96779.03;4954110;28;20051;-78
2022/03/04 11:57:42;;;;;;;16.65;12.98;;;;;;;24.23;13.64;96783.47;4956328;28;20549;-77
2022/03/04 12:00:27;;;;;;;18.15;13.32;;;;;;;24.52;12.20;96785.63;4958920;29;20074;-77
2022/03/04 12:02:56;;;;;;;19.80;13.13;;;;;;;24.59;12.63;96780.03;4959548;29;20047;-78
2022/03/04 12:05:26;;;;;;;15.60;12.38;;;;;;;24.37;12.37;96774.94;4959885;28;20058;-77